sensor_id;sensor_type;location;lat;lon;timestamp;P1;durP1;ratioP1;P2;durP2;ratioP2
4806;SDS011;2417;52.482;13.432;2023-07-28T00:00:05;11.87;;;4.20;;
4806;SDS011;2417;52.482;13.432;2023-07-28T00:02:40;14.10;;;4.77;;
4806;SDS011;2417;52.482;13.432;2023-07-28T00:05:08;18.13;;;5.53;;
4806;SDS011;2417;52.482;13.432;2023-07-28T00:07:36;15.73;;;5.90;;
4806;SDS011;2417;52.482;13.432;2023-07-28T00:10:06;16.33;;;6.60;;
4806;SDS011;2417;52.482;13.432;2023-07-28T00:12:34;22.13;;;7.50;;
4806;SDS011;2417;52.482;13.432;2023-07-28T00:15:02;66.40;;;7.73;;
4806;SDS011;2417;52.482;13.432;2023-07-28T00:17:31;62.10;;;8.80;;
4806;SDS011;2417;52.482;13.432;2023-07-28T00:19:59;76.10;;;9.50;;
4806;SDS011;2417;52.482;13.432;2023-07-28T00:22:27;17.23;;;8.13;;
4806;SDS011;2417;52.482;13.432;2023-07-28T00:24:54;18.60;;;8.90;;
4806;SDS011;2417;52.482;13.432;2023-07-28T00:27:24;20.73;;;9.40;;
4806;SDS011;2417;52.482;13.432;2023-07-28T00:29:52;20.03;;;9.70;;
4806;SDS011;2417;52.482;13.432;2023-07-28T00:32:21;21.50;;;10.13;;
4806;SDS011;2417;52.482;13.432;2023-07-28T00:34:49;20.60;;;10.13;;
4806;SDS011;2417;52.482;13.432;2023-07-28T00:37:17;21.30;;;10.73;;
4806;SDS011;2417;52.482;13.432;2023-07-28T00:39:45;32.53;;;10.43;;
4806;SDS011;2417;52.482;13.432;2023-07-28T00:42:13;20.77;;;10.00;;
4806;SDS011;2417;52.482;13.432;2023-07-28T00:44:42;19.60;;;9.67;;
4806;SDS011;2417;52.482;13.432;2023-07-28T00:47:10;27.17;;;10.37;;
4806;SDS011;2417;52.482;13.432;2023-07-28T00:49:41;40.70;;;15.80;;
4806;SDS011;2417;52.482;13.432;2023-07-28T00:52:08;20.90;;;9.90;;
4806;SDS011;2417;52.482;13.432;2023-07-28T00:54:37;21.30;;;9.70;;
4806;SDS011;2417;52.482;13.432;2023-07-28T00:57:04;19.10;;;9.17;;
4806;SDS011;2417;52.482;13.432;2023-07-28T00:59:34;20.20;;;7.43;;
4806;SDS011;2417;52.482;13.432;2023-07-28T01:02:03;17.97;;;8.63;;
4806;SDS011;2417;52.482;13.432;2023-07-28T01:04:32;23.27;;;7.40;;
4806;SDS011;2417;52.482;13.432;2023-07-28T01:07:01;18.40;;;7.40;;
4806;SDS011;2417;52.482;13.432;2023-07-28T01:09:34;18.13;;;7.93;;
4806;SDS011;2417;52.482;13.432;2023-07-28T01:12:06;22.03;;;7.03;;
4806;SDS011;2417;52.482;13.432;2023-07-28T01:14:36;19.30;;;8.20;;
4806;SDS011;2417;52.482;13.432;2023-07-28T01:17:05;16.60;;;6.97;;
4806;SDS011;2417;52.482;13.432;2023-07-28T01:19:33;15.33;;;6.00;;
4806;SDS011;2417;52.482;13.432;2023-07-28T01:22:07;17.20;;;6.93;;
4806;SDS011;2417;52.482;13.432;2023-07-28T01:24:42;14.97;;;6.03;;
4806;SDS011;2417;52.482;13.432;2023-07-28T01:27:18;17.90;;;6.20;;
4806;SDS011;2417;52.482;13.432;2023-07-28T01:29:46;19.80;;;6.03;;
4806;SDS011;2417;52.482;13.432;2023-07-28T01:32:14;15.57;;;5.70;;
4806;SDS011;2417;52.482;13.432;2023-07-28T01:34:43;16.70;;;6.00;;
4806;SDS011;2417;52.482;13.432;2023-07-28T01:37:11;15.27;;;5.80;;
4806;SDS011;2417;52.482;13.432;2023-07-28T01:39:39;16.57;;;6.60;;
4806;SDS011;2417;52.482;13.432;2023-07-28T01:42:08;16.77;;;5.40;;
4806;SDS011;2417;52.482;13.432;2023-07-28T01:44:37;16.37;;;6.10;;
4806;SDS011;2417;52.482;13.432;2023-07-28T01:47:05;28.67;;;6.67;;
4806;SDS011;2417;52.482;13.432;2023-07-28T01:49:33;24.40;;;6.70;;
4806;SDS011;2417;52.482;13.432;2023-07-28T01:52:01;25.60;;;6.40;;
4806;SDS011;2417;52.482;13.432;2023-07-28T01:54:29;22.13;;;7.00;;
4806;SDS011;2417;52.482;13.432;2023-07-28T01:56:57;20.10;;;6.30;;
4806;SDS011;2417;52.482;13.432;2023-07-28T01:59:25;18.50;;;6.87;;
4806;SDS011;2417;52.482;13.432;2023-07-28T02:01:55;18.77;;;6.53;;
4806;SDS011;2417;52.482;13.432;2023-07-28T02:04:22;21.40;;;8.97;;
4806;SDS011;2417;52.482;13.432;2023-07-28T02:06:51;20.13;;;6.83;;
4806;SDS011;2417;52.482;13.432;2023-07-28T02:09:18;19.53;;;6.80;;
4806;SDS011;2417;52.482;13.432;2023-07-28T02:11:46;18.00;;;6.90;;
4806;SDS011;2417;52.482;13.432;2023-07-28T02:14:14;17.00;;;6.27;;
4806;SDS011;2417;52.482;13.432;2023-07-28T02:16:42;22.17;;;6.70;;
4806;SDS011;2417;52.482;13.432;2023-07-28T02:19:11;22.30;;;7.13;;
4806;SDS011;2417;52.482;13.432;2023-07-28T02:21:39;20.30;;;6.97;;
4806;SDS011;2417;52.482;13.432;2023-07-28T02:24:07;45.90;;;8.00;;
4806;SDS011;2417;52.482;13.432;2023-07-28T02:26:35;64.17;;;8.23;;
4806;SDS011;2417;52.482;13.432;2023-07-28T02:29:03;51.10;;;9.23;;
4806;SDS011;2417;52.482;13.432;2023-07-28T02:31:31;21.53;;;7.40;;
4806;SDS011;2417;52.482;13.432;2023-07-28T02:33:59;21.77;;;7.50;;
4806;SDS011;2417;52.482;13.432;2023-07-28T02:36:29;21.03;;;7.27;;
4806;SDS011;2417;52.482;13.432;2023-07-28T02:38:58;22.80;;;6.53;;
4806;SDS011;2417;52.482;13.432;2023-07-28T02:41:25;31.33;;;8.80;;
4806;SDS011;2417;52.482;13.432;2023-07-28T02:43:53;19.67;;;7.00;;
4806;SDS011;2417;52.482;13.432;2023-07-28T02:46:21;23.67;;;7.47;;
4806;SDS011;2417;52.482;13.432;2023-07-28T02:48:50;20.50;;;6.63;;
4806;SDS011;2417;52.482;13.432;2023-07-28T02:51:18;22.13;;;7.10;;
4806;SDS011;2417;52.482;13.432;2023-07-28T02:53:47;25.37;;;7.80;;
4806;SDS011;2417;52.482;13.432;2023-07-28T02:56:37;22.67;;;7.67;;
4806;SDS011;2417;52.482;13.432;2023-07-28T02:59:09;22.63;;;7.87;;
4806;SDS011;2417;52.482;13.432;2023-07-28T03:01:37;23.23;;;7.80;;
4806;SDS011;2417;52.482;13.432;2023-07-28T03:04:06;27.67;;;7.90;;
4806;SDS011;2417;52.482;13.432;2023-07-28T03:07:06;27.97;;;7.83;;
4806;SDS011;2417;52.482;13.432;2023-07-28T03:09:38;23.73;;;7.57;;
4806;SDS011;2417;52.482;13.432;2023-07-28T03:12:07;24.73;;;8.70;;
4806;SDS011;2417;52.482;13.432;2023-07-28T03:14:37;27.13;;;8.80;;
4806;SDS011;2417;52.482;13.432;2023-07-28T03:17:05;21.70;;;7.47;;
4806;SDS011;2417;52.482;13.432;2023-07-28T03:19:33;28.73;;;8.53;;
4806;SDS011;2417;52.482;13.432;2023-07-28T03:22:01;30.97;;;8.50;;
4806;SDS011;2417;52.482;13.432;2023-07-28T03:24:29;23.73;;;8.13;;
4806;SDS011;2417;52.482;13.432;2023-07-28T03:27:02;27.77;;;8.63;;
4806;SDS011;2417;52.482;13.432;2023-07-28T03:29:30;23.87;;;7.60;;
4806;SDS011;2417;52.482;13.432;2023-07-28T03:31:58;23.57;;;8.00;;
4806;SDS011;2417;52.482;13.432;2023-07-28T03:34:26;24.60;;;8.30;;
4806;SDS011;2417;52.482;13.432;2023-07-28T03:36:57;25.90;;;7.40;;
4806;SDS011;2417;52.482;13.432;2023-07-28T03:39:26;28.87;;;7.93;;
4806;SDS011;2417;52.482;13.432;2023-07-28T03:41:53;29.70;;;8.80;;
4806;SDS011;2417;52.482;13.432;2023-07-28T03:44:23;25.07;;;7.63;;
4806;SDS011;2417;52.482;13.432;2023-07-28T03:46:51;24.27;;;7.90;;
4806;SDS011;2417;52.482;13.432;2023-07-28T03:49:19;26.97;;;9.03;;
4806;SDS011;2417;52.482;13.432;2023-07-28T03:51:47;32.47;;;8.60;;
4806;SDS011;2417;52.482;13.432;2023-07-28T03:54:15;28.50;;;8.73;;
4806;SDS011;2417;52.482;13.432;2023-07-28T03:56:42;24.13;;;8.10;;
4806;SDS011;2417;52.482;13.432;2023-07-28T03:59:10;39.00;;;8.53;;
4806;SDS011;2417;52.482;13.432;2023-07-28T04:01:40;26.93;;;9.70;;
4806;SDS011;2417;52.482;13.432;2023-07-28T04:04:07;27.90;;;9.33;;
4806;SDS011;2417;52.482;13.432;2023-07-28T04:06:39;29.40;;;9.97;;
4806;SDS011;2417;52.482;13.432;2023-07-28T04:09:08;26.83;;;9.33;;
4806;SDS011;2417;52.482;13.432;2023-07-28T04:11:36;31.57;;;10.40;;
4806;SDS011;2417;52.482;13.432;2023-07-28T04:14:05;34.83;;;9.60;;
4806;SDS011;2417;52.482;13.432;2023-07-28T04:16:33;32.60;;;10.70;;
4806;SDS011;2417;52.482;13.432;2023-07-28T04:19:03;31.27;;;10.47;;
4806;SDS011;2417;52.482;13.432;2023-07-28T04:21:31;33.17;;;11.17;;
4806;SDS011;2417;52.482;13.432;2023-07-28T04:23:59;32.53;;;10.10;;
4806;SDS011;2417;52.482;13.432;2023-07-28T04:26:28;33.77;;;11.23;;
4806;SDS011;2417;52.482;13.432;2023-07-28T04:29:00;33.17;;;11.23;;
4806;SDS011;2417;52.482;13.432;2023-07-28T04:31:28;37.00;;;11.80;;
4806;SDS011;2417;52.482;13.432;2023-07-28T04:34:01;34.37;;;11.83;;
4806;SDS011;2417;52.482;13.432;2023-07-28T04:36:51;36.17;;;12.70;;
4806;SDS011;2417;52.482;13.432;2023-07-28T04:39:22;35.43;;;11.70;;
4806;SDS011;2417;52.482;13.432;2023-07-28T04:41:51;35.57;;;12.90;;
4806;SDS011;2417;52.482;13.432;2023-07-28T04:44:19;34.40;;;11.40;;
4806;SDS011;2417;52.482;13.432;2023-07-28T04:46:53;32.67;;;11.37;;
4806;SDS011;2417;52.482;13.432;2023-07-28T04:49:22;33.73;;;11.30;;
4806;SDS011;2417;52.482;13.432;2023-07-28T04:52:11;39.67;;;13.00;;
4806;SDS011;2417;52.482;13.432;2023-07-28T04:54:39;37.27;;;12.67;;
4806;SDS011;2417;52.482;13.432;2023-07-28T04:57:07;33.43;;;11.03;;
4806;SDS011;2417;52.482;13.432;2023-07-28T04:59:37;37.30;;;11.83;;
4806;SDS011;2417;52.482;13.432;2023-07-28T05:02:05;47.17;;;12.97;;
4806;SDS011;2417;52.482;13.432;2023-07-28T05:04:33;33.57;;;11.93;;
4806;SDS011;2417;52.482;13.432;2023-07-28T05:07:03;35.33;;;11.73;;
4806;SDS011;2417;52.482;13.432;2023-07-28T05:09:33;33.80;;;13.17;;
4806;SDS011;2417;52.482;13.432;2023-07-28T05:12:01;35.33;;;12.10;;
4806;SDS011;2417;52.482;13.432;2023-07-28T05:14:34;32.67;;;11.90;;
4806;SDS011;2417;52.482;13.432;2023-07-28T05:17:02;29.97;;;11.17;;
4806;SDS011;2417;52.482;13.432;2023-07-28T05:19:37;32.20;;;12.27;;
4806;SDS011;2417;52.482;13.432;2023-07-28T05:22:37;34.23;;;12.47;;
4806;SDS011;2417;52.482;13.432;2023-07-28T05:25:08;34.10;;;11.87;;
4806;SDS011;2417;52.482;13.432;2023-07-28T05:27:39;35.23;;;12.23;;
4806;SDS011;2417;52.482;13.432;2023-07-28T05:30:08;34.10;;;12.17;;
4806;SDS011;2417;52.482;13.432;2023-07-28T05:32:36;32.63;;;11.47;;
4806;SDS011;2417;52.482;13.432;2023-07-28T05:35:21;29.97;;;11.40;;
4806;SDS011;2417;52.482;13.432;2023-07-28T05:37:50;29.90;;;11.60;;
4806;SDS011;2417;52.482;13.432;2023-07-28T05:40:20;33.33;;;12.13;;
4806;SDS011;2417;52.482;13.432;2023-07-28T05:42:48;32.23;;;12.37;;
4806;SDS011;2417;52.482;13.432;2023-07-28T05:45:16;33.23;;;11.23;;
4806;SDS011;2417;52.482;13.432;2023-07-28T05:47:44;29.67;;;11.30;;
4806;SDS011;2417;52.482;13.432;2023-07-28T05:50:12;35.63;;;12.37;;
4806;SDS011;2417;52.482;13.432;2023-07-28T05:52:40;32.47;;;12.30;;
4806;SDS011;2417;52.482;13.432;2023-07-28T05:55:08;29.53;;;11.27;;
4806;SDS011;2417;52.482;13.432;2023-07-28T05:57:37;27.53;;;11.17;;
4806;SDS011;2417;52.482;13.432;2023-07-28T06:00:08;33.70;;;11.30;;
4806;SDS011;2417;52.482;13.432;2023-07-28T06:02:40;31.33;;;10.97;;
4806;SDS011;2417;52.482;13.432;2023-07-28T06:05:14;31.00;;;11.70;;
4806;SDS011;2417;52.482;13.432;2023-07-28T06:07:43;29.43;;;10.40;;
4806;SDS011;2417;52.482;13.432;2023-07-28T06:10:11;27.10;;;10.60;;
4806;SDS011;2417;52.482;13.432;2023-07-28T06:12:40;31.90;;;11.53;;
4806;SDS011;2417;52.482;13.432;2023-07-28T06:15:08;43.23;;;12.10;;
4806;SDS011;2417;52.482;13.432;2023-07-28T06:17:38;34.33;;;10.63;;
4806;SDS011;2417;52.482;13.432;2023-07-28T06:20:07;34.60;;;11.03;;
4806;SDS011;2417;52.482;13.432;2023-07-28T06:22:36;35.57;;;10.83;;
4806;SDS011;2417;52.482;13.432;2023-07-28T06:25:04;30.00;;;11.10;;
4806;SDS011;2417;52.482;13.432;2023-07-28T06:27:34;27.97;;;11.43;;
4806;SDS011;2417;52.482;13.432;2023-07-28T06:30:03;34.00;;;12.27;;
4806;SDS011;2417;52.482;13.432;2023-07-28T06:32:32;26.50;;;9.63;;
4806;SDS011;2417;52.482;13.432;2023-07-28T06:35:00;36.90;;;11.40;;
4806;SDS011;2417;52.482;13.432;2023-07-28T06:37:29;29.13;;;10.23;;
4806;SDS011;2417;52.482;13.432;2023-07-28T06:39:57;28.93;;;9.70;;
4806;SDS011;2417;52.482;13.432;2023-07-28T06:42:26;47.47;;;12.20;;
4806;SDS011;2417;52.482;13.432;2023-07-28T06:44:55;33.73;;;11.03;;
4806;SDS011;2417;52.482;13.432;2023-07-28T06:47:25;30.90;;;10.70;;
4806;SDS011;2417;52.482;13.432;2023-07-28T06:49:56;34.37;;;11.23;;
4806;SDS011;2417;52.482;13.432;2023-07-28T06:52:23;37.10;;;12.10;;
4806;SDS011;2417;52.482;13.432;2023-07-28T06:54:53;31.33;;;11.17;;
4806;SDS011;2417;52.482;13.432;2023-07-28T06:57:21;31.13;;;10.80;;
4806;SDS011;2417;52.482;13.432;2023-07-28T06:59:49;32.07;;;10.57;;
4806;SDS011;2417;52.482;13.432;2023-07-28T07:02:17;27.07;;;10.33;;
4806;SDS011;2417;52.482;13.432;2023-07-28T07:04:46;35.57;;;10.07;;
4806;SDS011;2417;52.482;13.432;2023-07-28T07:07:14;29.90;;;11.10;;
4806;SDS011;2417;52.482;13.432;2023-07-28T07:09:43;20.70;;;9.00;;
4806;SDS011;2417;52.482;13.432;2023-07-28T07:12:11;27.30;;;10.07;;
4806;SDS011;2417;52.482;13.432;2023-07-28T07:14:40;22.47;;;9.37;;
4806;SDS011;2417;52.482;13.432;2023-07-28T07:17:08;20.13;;;7.90;;
4806;SDS011;2417;52.482;13.432;2023-07-28T07:19:36;21.97;;;8.93;;
4806;SDS011;2417;52.482;13.432;2023-07-28T07:22:06;25.50;;;9.17;;
4806;SDS011;2417;52.482;13.432;2023-07-28T07:24:34;22.13;;;7.60;;
4806;SDS011;2417;52.482;13.432;2023-07-28T07:27:02;17.20;;;7.30;;
4806;SDS011;2417;52.482;13.432;2023-07-28T07:29:30;18.80;;;7.30;;
4806;SDS011;2417;52.482;13.432;2023-07-28T07:31:58;24.43;;;6.67;;
4806;SDS011;2417;52.482;13.432;2023-07-28T07:34:27;24.13;;;6.90;;
4806;SDS011;2417;52.482;13.432;2023-07-28T07:36:55;18.40;;;6.83;;
4806;SDS011;2417;52.482;13.432;2023-07-28T07:39:25;16.20;;;6.00;;
4806;SDS011;2417;52.482;13.432;2023-07-28T07:41:53;17.40;;;6.70;;
4806;SDS011;2417;52.482;13.432;2023-07-28T07:44:21;25.20;;;6.77;;
4806;SDS011;2417;52.482;13.432;2023-07-28T07:46:49;15.60;;;6.30;;
4806;SDS011;2417;52.482;13.432;2023-07-28T07:49:17;17.23;;;4.83;;
4806;SDS011;2417;52.482;13.432;2023-07-28T07:51:45;16.37;;;6.13;;
4806;SDS011;2417;52.482;13.432;2023-07-28T07:54:13;11.37;;;4.23;;
4806;SDS011;2417;52.482;13.432;2023-07-28T07:56:44;11.60;;;3.90;;
4806;SDS011;2417;52.482;13.432;2023-07-28T07:59:13;12.03;;;4.00;;
4806;SDS011;2417;52.482;13.432;2023-07-28T08:01:41;12.50;;;5.30;;
4806;SDS011;2417;52.482;13.432;2023-07-28T08:04:09;11.20;;;3.20;;
4806;SDS011;2417;52.482;13.432;2023-07-28T08:06:37;8.63;;;2.70;;
4806;SDS011;2417;52.482;13.432;2023-07-28T08:09:08;10.27;;;2.90;;
4806;SDS011;2417;52.482;13.432;2023-07-28T08:11:36;10.77;;;2.60;;
4806;SDS011;2417;52.482;13.432;2023-07-28T08:14:05;9.40;;;1.90;;
4806;SDS011;2417;52.482;13.432;2023-07-28T08:16:34;12.70;;;2.10;;
4806;SDS011;2417;52.482;13.432;2023-07-28T08:19:02;6.93;;;2.23;;
4806;SDS011;2417;52.482;13.432;2023-07-28T08:21:29;5.80;;;1.60;;
4806;SDS011;2417;52.482;13.432;2023-07-28T08:24:03;8.70;;;1.83;;
4806;SDS011;2417;52.482;13.432;2023-07-28T08:26:31;7.07;;;1.60;;
4806;SDS011;2417;52.482;13.432;2023-07-28T08:28:59;9.70;;;1.67;;
4806;SDS011;2417;52.482;13.432;2023-07-28T08:31:28;7.00;;;2.07;;
4806;SDS011;2417;52.482;13.432;2023-07-28T08:33:56;6.30;;;1.90;;
4806;SDS011;2417;52.482;13.432;2023-07-28T08:36:24;6.47;;;1.70;;
4806;SDS011;2417;52.482;13.432;2023-07-28T08:38:53;7.23;;;2.53;;
4806;SDS011;2417;52.482;13.432;2023-07-28T08:41:20;4.73;;;2.10;;
4806;SDS011;2417;52.482;13.432;2023-07-28T08:43:49;4.20;;;1.43;;
4806;SDS011;2417;52.482;13.432;2023-07-28T08:46:17;3.70;;;1.80;;
4806;SDS011;2417;52.482;13.432;2023-07-28T08:48:47;4.07;;;1.63;;
4806;SDS011;2417;52.482;13.432;2023-07-28T08:51:15;3.77;;;1.67;;
4806;SDS011;2417;52.482;13.432;2023-07-28T08:53:43;3.53;;;1.50;;
4806;SDS011;2417;52.482;13.432;2023-07-28T08:56:10;3.93;;;1.40;;
4806;SDS011;2417;52.482;13.432;2023-07-28T08:58:38;3.40;;;1.60;;
4806;SDS011;2417;52.482;13.432;2023-07-28T09:01:06;14.40;;;8.80;;
4806;SDS011;2417;52.482;13.432;2023-07-28T09:03:39;4.00;;;1.53;;
4806;SDS011;2417;52.482;13.432;2023-07-28T09:06:09;3.63;;;1.80;;
4806;SDS011;2417;52.482;13.432;2023-07-28T09:08:37;4.43;;;1.93;;
4806;SDS011;2417;52.482;13.432;2023-07-28T09:11:05;4.30;;;2.30;;
4806;SDS011;2417;52.482;13.432;2023-07-28T09:13:37;4.80;;;2.63;;
4806;SDS011;2417;52.482;13.432;2023-07-28T09:16:09;7.20;;;3.70;;
4806;SDS011;2417;52.482;13.432;2023-07-28T09:18:43;6.03;;;3.23;;
4806;SDS011;2417;52.482;13.432;2023-07-28T09:21:17;7.57;;;3.73;;
4806;SDS011;2417;52.482;13.432;2023-07-28T09:23:46;9.23;;;2.00;;
4806;SDS011;2417;52.482;13.432;2023-07-28T09:26:14;4.60;;;1.83;;
4806;SDS011;2417;52.482;13.432;2023-07-28T09:28:42;7.40;;;3.10;;
4806;SDS011;2417;52.482;13.432;2023-07-28T09:31:10;6.07;;;1.93;;
4806;SDS011;2417;52.482;13.432;2023-07-28T09:33:38;8.93;;;2.13;;
4806;SDS011;2417;52.482;13.432;2023-07-28T09:36:10;1.77;;;1.40;;
4806;SDS011;2417;52.482;13.432;2023-07-28T09:38:42;3.37;;;1.93;;
4806;SDS011;2417;52.482;13.432;2023-07-28T09:41:10;1.60;;;1.40;;
4806;SDS011;2417;52.482;13.432;2023-07-28T09:43:39;3.50;;;1.70;;
4806;SDS011;2417;52.482;13.432;2023-07-28T09:46:08;3.43;;;1.70;;
4806;SDS011;2417;52.482;13.432;2023-07-28T09:48:37;2.90;;;1.60;;
4806;SDS011;2417;52.482;13.432;2023-07-28T09:51:06;2.63;;;1.87;;
4806;SDS011;2417;52.482;13.432;2023-07-28T09:53:39;2.67;;;1.77;;
4806;SDS011;2417;52.482;13.432;2023-07-28T09:56:11;3.63;;;1.53;;
4806;SDS011;2417;52.482;13.432;2023-07-28T09:58:40;2.27;;;1.90;;
4806;SDS011;2417;52.482;13.432;2023-07-28T10:01:09;6.70;;;2.17;;
4806;SDS011;2417;52.482;13.432;2023-07-28T10:03:38;2.30;;;1.77;;
4806;SDS011;2417;52.482;13.432;2023-07-28T10:06:06;3.23;;;2.00;;
4806;SDS011;2417;52.482;13.432;2023-07-28T10:08:34;3.20;;;1.60;;
4806;SDS011;2417;52.482;13.432;2023-07-28T10:11:02;4.00;;;1.83;;
4806;SDS011;2417;52.482;13.432;2023-07-28T10:13:40;3.33;;;1.90;;
4806;SDS011;2417;52.482;13.432;2023-07-28T10:16:10;4.13;;;2.17;;
4806;SDS011;2417;52.482;13.432;2023-07-28T10:18:39;2.97;;;1.80;;
4806;SDS011;2417;52.482;13.432;2023-07-28T10:21:08;2.70;;;2.00;;
4806;SDS011;2417;52.482;13.432;2023-07-28T10:23:39;2.63;;;1.80;;
4806;SDS011;2417;52.482;13.432;2023-07-28T10:26:07;5.60;;;2.17;;
4806;SDS011;2417;52.482;13.432;2023-07-28T10:28:37;3.93;;;2.00;;
4806;SDS011;2417;52.482;13.432;2023-07-28T10:31:09;2.87;;;1.90;;
4806;SDS011;2417;52.482;13.432;2023-07-28T10:33:38;3.07;;;2.10;;
4806;SDS011;2417;52.482;13.432;2023-07-28T10:36:12;6.53;;;2.50;;
4806;SDS011;2417;52.482;13.432;2023-07-28T10:38:40;4.00;;;2.70;;
4806;SDS011;2417;52.482;13.432;2023-07-28T10:41:11;5.00;;;2.40;;
4806;SDS011;2417;52.482;13.432;2023-07-28T10:43:40;4.13;;;3.17;;
4806;SDS011;2417;52.482;13.432;2023-07-28T10:46:10;5.33;;;3.23;;
4806;SDS011;2417;52.482;13.432;2023-07-28T10:48:41;6.20;;;4.23;;
4806;SDS011;2417;52.482;13.432;2023-07-28T10:51:09;5.47;;;4.70;;
4806;SDS011;2417;52.482;13.432;2023-07-28T10:53:38;6.47;;;4.87;;
4806;SDS011;2417;52.482;13.432;2023-07-28T10:56:08;8.00;;;5.53;;
4806;SDS011;2417;52.482;13.432;2023-07-28T10:58:37;3.27;;;2.97;;
4806;SDS011;2417;52.482;13.432;2023-07-28T11:01:05;3.87;;;2.77;;
4806;SDS011;2417;52.482;13.432;2023-07-28T11:03:35;6.03;;;2.73;;
4806;SDS011;2417;52.482;13.432;2023-07-28T11:06:03;3.13;;;2.50;;
4806;SDS011;2417;52.482;13.432;2023-07-28T11:08:32;4.43;;;2.33;;
4806;SDS011;2417;52.482;13.432;2023-07-28T11:11:02;3.27;;;2.10;;
4806;SDS011;2417;52.482;13.432;2023-07-28T11:13:31;2.93;;;1.80;;
4806;SDS011;2417;52.482;13.432;2023-07-28T11:16:14;3.47;;;1.70;;
4806;SDS011;2417;52.482;13.432;2023-07-28T11:18:44;18.67;;;2.57;;
4806;SDS011;2417;52.482;13.432;2023-07-28T11:21:12;3.87;;;2.60;;
4806;SDS011;2417;52.482;13.432;2023-07-28T11:23:43;11.07;;;3.23;;
4806;SDS011;2417;52.482;13.432;2023-07-28T11:26:11;5.83;;;3.97;;
4806;SDS011;2417;52.482;13.432;2023-07-28T11:28:40;6.00;;;3.20;;
4806;SDS011;2417;52.482;13.432;2023-07-28T11:31:08;11.93;;;3.20;;
4806;SDS011;2417;52.482;13.432;2023-07-28T11:33:38;6.77;;;3.30;;
4806;SDS011;2417;52.482;13.432;2023-07-28T11:36:06;6.70;;;3.67;;
4806;SDS011;2417;52.482;13.432;2023-07-28T11:38:34;8.80;;;4.00;;
4806;SDS011;2417;52.482;13.432;2023-07-28T11:41:03;14.33;;;4.00;;
4806;SDS011;2417;52.482;13.432;2023-07-28T11:43:31;5.43;;;4.00;;
4806;SDS011;2417;52.482;13.432;2023-07-28T11:45:59;10.17;;;5.40;;
4806;SDS011;2417;52.482;13.432;2023-07-28T11:48:29;10.83;;;7.00;;
4806;SDS011;2417;52.482;13.432;2023-07-28T11:50:58;7.80;;;5.60;;
4806;SDS011;2417;52.482;13.432;2023-07-28T11:53:27;8.50;;;5.53;;
4806;SDS011;2417;52.482;13.432;2023-07-28T11:56:00;7.80;;;5.43;;
4806;SDS011;2417;52.482;13.432;2023-07-28T11:58:29;8.67;;;4.77;;
4806;SDS011;2417;52.482;13.432;2023-07-28T12:00:57;9.60;;;4.90;;
4806;SDS011;2417;52.482;13.432;2023-07-28T12:03:29;7.97;;;5.57;;
4806;SDS011;2417;52.482;13.432;2023-07-28T12:06:01;8.07;;;5.50;;
4806;SDS011;2417;52.482;13.432;2023-07-28T12:08:36;7.43;;;5.63;;
4806;SDS011;2417;52.482;13.432;2023-07-28T12:11:04;9.93;;;5.13;;
4806;SDS011;2417;52.482;13.432;2023-07-28T12:13:46;6.20;;;4.47;;
4806;SDS011;2417;52.482;13.432;2023-07-28T12:16:37;5.40;;;4.37;;
4806;SDS011;2417;52.482;13.432;2023-07-28T12:19:10;26.50;;;7.23;;
4806;SDS011;2417;52.482;13.432;2023-07-28T12:21:39;7.70;;;4.60;;
4806;SDS011;2417;52.482;13.432;2023-07-28T12:24:08;7.27;;;3.60;;
4806;SDS011;2417;52.482;13.432;2023-07-28T12:26:35;9.70;;;4.17;;
4806;SDS011;2417;52.482;13.432;2023-07-28T12:29:06;8.27;;;4.30;;
4806;SDS011;2417;52.482;13.432;2023-07-28T12:31:37;4.70;;;3.27;;
4806;SDS011;2417;52.482;13.432;2023-07-28T12:34:08;3.63;;;2.60;;
4806;SDS011;2417;52.482;13.432;2023-07-28T12:36:36;5.63;;;2.47;;
4806;SDS011;2417;52.482;13.432;2023-07-28T12:39:08;5.27;;;2.40;;
4806;SDS011;2417;52.482;13.432;2023-07-28T12:41:39;5.20;;;3.30;;
4806;SDS011;2417;52.482;13.432;2023-07-28T12:44:10;4.70;;;2.83;;
4806;SDS011;2417;52.482;13.432;2023-07-28T12:46:43;10.47;;;2.50;;
4806;SDS011;2417;52.482;13.432;2023-07-28T12:49:11;4.10;;;2.30;;
4806;SDS011;2417;52.482;13.432;2023-07-28T12:51:43;3.83;;;2.20;;
4806;SDS011;2417;52.482;13.432;2023-07-28T12:54:25;4.67;;;2.67;;
4806;SDS011;2417;52.482;13.432;2023-07-28T12:56:53;4.03;;;2.80;;
4806;SDS011;2417;52.482;13.432;2023-07-28T12:59:24;3.73;;;2.53;;
4806;SDS011;2417;52.482;13.432;2023-07-28T13:01:52;3.30;;;2.37;;
4806;SDS011;2417;52.482;13.432;2023-07-28T13:04:20;3.53;;;2.50;;
4806;SDS011;2417;52.482;13.432;2023-07-28T13:06:47;5.93;;;3.30;;
4806;SDS011;2417;52.482;13.432;2023-07-28T13:09:16;2.80;;;1.77;;
4806;SDS011;2417;52.482;13.432;2023-07-28T13:11:48;4.17;;;2.23;;
4806;SDS011;2417;52.482;13.432;2023-07-28T13:14:19;3.83;;;2.17;;
4806;SDS011;2417;52.482;13.432;2023-07-28T13:16:48;4.33;;;2.17;;
4806;SDS011;2417;52.482;13.432;2023-07-28T13:19:16;3.30;;;2.27;;
4806;SDS011;2417;52.482;13.432;2023-07-28T13:21:44;3.37;;;2.10;;
4806;SDS011;2417;52.482;13.432;2023-07-28T13:24:12;5.70;;;2.60;;
4806;SDS011;2417;52.482;13.432;2023-07-28T13:26:39;5.03;;;2.63;;
4806;SDS011;2417;52.482;13.432;2023-07-28T13:29:09;4.40;;;2.67;;
4806;SDS011;2417;52.482;13.432;2023-07-28T13:31:37;6.30;;;2.20;;
4806;SDS011;2417;52.482;13.432;2023-07-28T13:34:05;4.53;;;2.80;;
4806;SDS011;2417;52.482;13.432;2023-07-28T13:36:33;11.03;;;3.40;;
4806;SDS011;2417;52.482;13.432;2023-07-28T13:39:04;4.93;;;3.70;;
4806;SDS011;2417;52.482;13.432;2023-07-28T13:41:32;4.97;;;3.60;;
4806;SDS011;2417;52.482;13.432;2023-07-28T13:44:01;7.70;;;4.80;;
4806;SDS011;2417;52.482;13.432;2023-07-28T13:46:30;5.63;;;4.57;;
4806;SDS011;2417;52.482;13.432;2023-07-28T13:48:58;4.50;;;4.00;;
4806;SDS011;2417;52.482;13.432;2023-07-28T13:51:34;3.83;;;3.30;;
4806;SDS011;2417;52.482;13.432;2023-07-28T13:54:05;6.00;;;3.10;;
4806;SDS011;2417;52.482;13.432;2023-07-28T13:56:36;4.60;;;2.90;;
4806;SDS011;2417;52.482;13.432;2023-07-28T13:59:04;4.23;;;2.80;;
4806;SDS011;2417;52.482;13.432;2023-07-28T14:01:33;3.63;;;2.70;;
4806;SDS011;2417;52.482;13.432;2023-07-28T14:04:02;4.20;;;2.50;;
4806;SDS011;2417;52.482;13.432;2023-07-28T14:06:30;3.50;;;2.50;;
4806;SDS011;2417;52.482;13.432;2023-07-28T14:08:58;6.30;;;4.40;;
4806;SDS011;2417;52.482;13.432;2023-07-28T14:11:26;2.93;;;2.00;;
4806;SDS011;2417;52.482;13.432;2023-07-28T14:13:54;3.03;;;2.10;;
4806;SDS011;2417;52.482;13.432;2023-07-28T14:16:22;7.20;;;2.53;;
4806;SDS011;2417;52.482;13.432;2023-07-28T14:18:54;4.00;;;2.50;;
4806;SDS011;2417;52.482;13.432;2023-07-28T14:21:22;4.10;;;2.20;;
4806;SDS011;2417;52.482;13.432;2023-07-28T14:23:50;2.90;;;2.30;;
4806;SDS011;2417;52.482;13.432;2023-07-28T14:26:18;3.90;;;1.90;;
4806;SDS011;2417;52.482;13.432;2023-07-28T14:28:46;3.80;;;2.17;;
4806;SDS011;2417;52.482;13.432;2023-07-28T14:31:14;3.70;;;2.43;;
4806;SDS011;2417;52.482;13.432;2023-07-28T14:33:42;3.20;;;2.00;;
4806;SDS011;2417;52.482;13.432;2023-07-28T14:36:12;3.50;;;1.80;;
4806;SDS011;2417;52.482;13.432;2023-07-28T14:38:40;5.90;;;2.30;;
4806;SDS011;2417;52.482;13.432;2023-07-28T14:41:07;3.33;;;1.70;;
4806;SDS011;2417;52.482;13.432;2023-07-28T14:43:36;5.60;;;2.03;;
4806;SDS011;2417;52.482;13.432;2023-07-28T14:46:04;3.40;;;1.90;;
4806;SDS011;2417;52.482;13.432;2023-07-28T14:48:32;3.00;;;1.77;;
4806;SDS011;2417;52.482;13.432;2023-07-28T14:51:01;3.90;;;2.27;;
4806;SDS011;2417;52.482;13.432;2023-07-28T14:53:32;3.30;;;2.20;;
4806;SDS011;2417;52.482;13.432;2023-07-28T14:56:00;3.47;;;2.10;;
4806;SDS011;2417;52.482;13.432;2023-07-28T14:58:30;2.73;;;1.70;;
4806;SDS011;2417;52.482;13.432;2023-07-28T15:00:58;3.30;;;2.10;;
4806;SDS011;2417;52.482;13.432;2023-07-28T15:03:27;7.10;;;2.00;;